createdAt,value
2018-01-16T00:01:21.737Z,98453.20
2018-01-16T00:03:49.369Z,98459.08
2018-01-16T00:06:16.907Z,98451.65
2018-01-16T00:08:44.481Z,98453.53
2018-01-16T00:11:12.018Z,98464.12
2018-01-16T00:13:39.641Z,98461.84
2018-01-16T00:16:07.341Z,98472.48
2018-01-16T00:18:34.851Z,98470.95
2018-01-16T00:21:02.392Z,98463.95
2018-01-16T00:23:30.270Z,98470.22
2018-01-16T00:25:57.780Z,98472.39
2018-01-16T00:28:25.292Z,98471.15
2018-01-16T00:30:52.889Z,98466.98
2018-01-16T00:33:20.433Z,98465.34
2018-01-16T00:35:47.985Z,98452.42
2018-01-16T00:38:15.545Z,98471.92
2018-01-16T00:40:43.146Z,98452.27
2018-01-16T00:43:10.667Z,98466.97
2018-01-16T00:45:38.187Z,98462.02
2018-01-16T00:48:05.757Z,98468.92
2018-01-16T00:50:33.294Z,98472.17
2018-01-16T00:53:01.155Z,98462.10
2018-01-16T00:55:28.813Z,98468.30
2018-01-16T00:57:56.397Z,98473.71
2018-01-16T01:00:23.969Z,98474.48
2018-01-16T01:02:51.556Z,98469.22
2018-01-16T01:05:19.097Z,98469.45
2018-01-16T01:07:46.645Z,98476.73
2018-01-16T01:10:14.218Z,98473.78
2018-01-16T01:12:41.820Z,98468.06
2018-01-16T01:15:09.366Z,98463.03
2018-01-16T01:17:37.089Z,98462.64
2018-01-16T01:20:04.751Z,98464.17
2018-01-16T01:22:32.294Z,98472.38
2018-01-16T01:24:59.855Z,98462.86
2018-01-16T01:27:27.434Z,98460.11
2018-01-16T01:29:54.989Z,98463.80
2018-01-16T01:32:22.534Z,98458.78
2018-01-16T01:34:50.440Z,98460.78
2018-01-16T01:37:17.943Z,98457.86
2018-01-16T01:39:45.448Z,98454.45
2018-01-16T01:42:13.017Z,98457.61
2018-01-16T01:44:40.607Z,98448.95
2018-01-16T01:47:08.173Z,98445.70
2018-01-16T01:49:35.717Z,98444.84
2018-01-16T01:52:03.519Z,98442.21
2018-01-16T01:54:31.066Z,98441.31
2018-01-16T01:56:58.609Z,98438.13
2018-01-16T01:59:26.187Z,98433.20
2018-01-16T02:01:53.723Z,98444.09
2018-01-16T02:04:21.313Z,98437.42
2018-01-16T02:06:49.058Z,98435.73
2018-01-16T02:09:16.604Z,98438.97
2018-01-16T02:11:44.480Z,98436.89
2018-01-16T02:14:12.034Z,98438.88
2018-01-16T02:16:39.677Z,98437.27
2018-01-16T02:19:07.220Z,98426.66
2018-01-16T02:21:34.781Z,98426.59
2018-01-16T02:24:02.296Z,98417.79
2018-01-16T02:26:29.867Z,98418.09
2018-01-16T02:28:57.415Z,98420.33
2018-01-16T02:31:25.092Z,98414.85
2018-01-16T02:33:52.672Z,98407.35
2018-01-16T02:36:20.316Z,98411.39
2018-01-16T02:38:47.872Z,98400.71
2018-01-16T02:41:15.415Z,98401.70
2018-01-16T02:43:42.943Z,98394.53
2018-01-16T02:46:10.478Z,98393.37
2018-01-16T02:48:37.988Z,98388.47
2018-01-16T02:51:05.540Z,98384.17
2018-01-16T02:53:33.048Z,98386.17
2018-01-16T02:56:00.598Z,98380.45
2018-01-16T02:58:28.103Z,98372.80
2018-01-16T03:00:55.639Z,98366.30
2018-01-16T03:03:23.448Z,98374.17
2018-01-16T03:05:50.993Z,98375.74
2018-01-16T03:08:18.533Z,98365.23
2018-01-16T03:10:46.400Z,98374.81
2018-01-16T03:13:13.910Z,98348.85
2018-01-16T03:15:41.607Z,98360.60
2018-01-16T03:18:09.495Z,98369.14
2018-01-16T03:20:37.029Z,98368.72
2018-01-16T03:23:04.578Z,98372.17
2018-01-16T03:25:32.141Z,98383.34
2018-01-16T03:27:59.638Z,98374.16
2018-01-16T03:30:27.222Z,98379.16
2018-01-16T03:32:54.938Z,98370.19
2018-01-16T03:35:22.451Z,98357.27
2018-01-16T03:37:50.017Z,98359.59
2018-01-16T03:40:17.524Z,98354.22
2018-01-16T03:42:45.092Z,98355.41
2018-01-16T03:45:12.695Z,98351.27
2018-01-16T03:47:40.298Z,98352.64
2018-01-16T03:50:07.939Z,98350.74
2018-01-16T03:52:35.481Z,98337.92
2018-01-16T03:55:03.067Z,98329.23
2018-01-16T03:57:30.583Z,98335.20
2018-01-16T03:59:58.443Z,98321.27
2018-01-16T04:02:25.967Z,98318.28
2018-01-16T04:04:53.658Z,98326.55
2018-01-16T04:07:21.257Z,98316.30
2018-01-16T04:09:48.830Z,98314.95
2018-01-16T04:12:16.369Z,98305.80
2018-01-16T04:14:43.933Z,98305.59
2018-01-16T04:17:11.473Z,98300.48
2018-01-16T04:19:39.360Z,98299.16
2018-01-16T04:22:06.906Z,98299.36
2018-01-16T04:24:34.446Z,98297.21
2018-01-16T04:27:02.021Z,98299.12
2018-01-16T04:29:29.835Z,98289.14
2018-01-16T04:31:57.500Z,98280.47
2018-01-16T04:34:25.069Z,98293.50
2018-01-16T04:36:52.576Z,98282.46
2018-01-16T04:39:20.076Z,98273.37
2018-01-16T04:41:47.610Z,98283.27
2018-01-16T04:44:15.152Z,98276.95
2018-01-16T04:46:42.686Z,98270.00
2018-01-16T04:49:10.290Z,98271.05
2018-01-16T04:51:38.090Z,98282.06
2018-01-16T04:54:05.673Z,98289.95
2018-01-16T04:56:33.252Z,98288.33
2018-01-16T04:59:00.747Z,98285.10
2018-01-16T05:01:28.301Z,98284.80
2018-01-16T05:03:55.882Z,98291.88
2018-01-16T05:06:23.628Z,98286.53
2018-01-16T05:08:51.165Z,98281.28
2018-01-16T05:11:18.777Z,98286.23
2018-01-16T05:13:46.625Z,98277.67
2018-01-16T05:16:14.159Z,98275.75
2018-01-16T05:18:41.692Z,98264.41
2018-01-16T05:21:09.187Z,98261.12
2018-01-16T05:23:36.841Z,98246.20
2018-01-16T05:26:04.388Z,98255.20
2018-01-16T05:28:31.898Z,98241.42
2018-01-16T05:30:59.461Z,98239.95
2018-01-16T05:33:27.001Z,98251.72
2018-01-16T05:35:54.597Z,98260.11
2018-01-16T05:38:22.114Z,98256.47
2018-01-16T05:40:49.808Z,98261.51
2018-01-16T05:43:17.391Z,98262.64
2018-01-16T05:45:44.943Z,98265.38
2018-01-16T05:48:12.483Z,98268.33
2018-01-16T05:50:40.085Z,98272.17
2018-01-16T05:53:07.588Z,98266.77
2018-01-16T05:55:35.154Z,98271.23
2018-01-16T05:58:02.983Z,98268.27
2018-01-16T06:00:30.506Z,98262.97
2018-01-16T06:02:58.222Z,98260.45
2018-01-16T06:05:25.823Z,98264.31
2018-01-16T06:07:53.326Z,98257.91
2018-01-16T06:10:20.860Z,98271.32
2018-01-16T06:12:48.772Z,98269.74
2018-01-16T06:15:16.329Z,98276.19
2018-01-16T06:17:43.878Z,98263.94
2018-01-16T06:20:11.840Z,98267.87
2018-01-16T06:22:39.381Z,98268.59
2018-01-16T06:25:06.921Z,98269.02
2018-01-16T06:27:34.497Z,98263.92
2018-01-16T06:30:02.078Z,98262.03
2018-01-16T06:32:29.574Z,98258.56
2018-01-16T06:34:57.488Z,98261.61
2018-01-16T06:37:24.995Z,98263.00
2018-01-16T06:39:52.538Z,98264.53
2018-01-16T06:42:20.150Z,98267.85
2018-01-16T06:44:47.673Z,98268.23
2018-01-16T06:47:15.217Z,98261.63
2018-01-16T06:49:42.756Z,98263.17
2018-01-16T06:52:10.324Z,98258.22
2018-01-16T06:54:37.837Z,98266.02
2018-01-16T06:57:05.385Z,98260.53
2018-01-16T06:59:32.985Z,98268.41
2018-01-16T07:02:00.526Z,98265.34
2018-01-16T07:04:28.074Z,98267.69
2018-01-16T07:06:55.631Z,98264.25
2018-01-16T07:09:23.156Z,98270.73
2018-01-16T07:11:50.837Z,98271.70
2018-01-16T07:14:18.416Z,98272.31
2018-01-16T07:16:46.022Z,98273.19
2018-01-16T07:19:13.642Z,98269.17
2018-01-16T07:21:41.180Z,98262.32
2018-01-16T07:24:08.771Z,98258.91
2018-01-16T07:26:36.292Z,98269.88
2018-01-16T07:29:03.826Z,98305.69
2018-01-16T07:31:31.370Z,98331.47
2018-01-16T07:33:58.969Z,98319.44
2018-01-16T07:36:26.578Z,98320.11
2018-01-16T07:38:54.112Z,98319.19
2018-01-16T07:41:21.702Z,98314.72
2018-01-16T07:43:49.224Z,98309.36
2018-01-16T07:46:16.773Z,98307.50
2018-01-16T07:48:44.320Z,98308.42
2018-01-16T07:51:11.938Z,98294.22
2018-01-16T07:53:39.447Z,98294.64
2018-01-16T07:56:07.001Z,98300.14
2018-01-16T07:58:34.592Z,98302.05
2018-01-16T08:01:02.232Z,98297.02
2018-01-16T08:03:29.751Z,98296.58
2018-01-16T08:05:57.313Z,98303.63
2018-01-16T08:08:24.932Z,98301.87
2018-01-16T08:10:52.504Z,98303.66
2018-01-16T08:13:20.061Z,98305.25
2018-01-16T08:15:47.618Z,98300.24
2018-01-16T08:18:15.589Z,98308.97
2018-01-16T08:20:43.150Z,98308.73
2018-01-16T08:23:10.697Z,98308.53
2018-01-16T08:25:38.262Z,98293.20
2018-01-16T08:28:05.840Z,98292.05
2018-01-16T08:30:33.356Z,98287.45
2018-01-16T08:33:00.915Z,98283.06
2018-01-16T08:35:28.470Z,98275.56
2018-01-16T08:37:56.026Z,98281.31
2018-01-16T08:40:23.535Z,98281.08
2018-01-16T08:42:51.182Z,98291.84
2018-01-16T08:45:19.104Z,98295.72
2018-01-16T08:47:46.660Z,98289.55
2018-01-16T08:50:14.206Z,98289.70
2018-01-16T08:52:41.766Z,98284.88
2018-01-16T08:55:09.560Z,98291.11
2018-01-16T08:57:37.080Z,98312.67
2018-01-16T09:00:04.686Z,98291.67
2018-01-16T09:02:32.199Z,98299.47
2018-01-16T09:04:59.852Z,98316.75
2018-01-16T09:07:27.408Z,98318.84
2018-01-16T09:09:55.221Z,98297.01
2018-01-16T09:12:22.879Z,98310.36
2018-01-16T09:14:50.387Z,98303.64
2018-01-16T09:17:17.939Z,98322.14
2018-01-16T09:19:45.485Z,98313.22
2018-01-16T09:22:13.163Z,98310.41
2018-01-16T09:24:40.845Z,98299.84
2018-01-16T09:27:08.407Z,98295.19
2018-01-16T09:29:36.114Z,98293.92
2018-01-16T09:32:03.615Z,98298.55
2018-01-16T09:34:31.205Z,98293.92
2018-01-16T09:36:58.812Z,98296.88
2018-01-16T09:39:26.365Z,98301.73
2018-01-16T09:41:53.891Z,98319.70
2018-01-16T09:44:21.429Z,98331.64
2018-01-16T09:46:49.014Z,98326.35
2018-01-16T09:49:16.585Z,98325.63
2018-01-16T09:51:44.131Z,98332.65
2018-01-16T09:54:11.671Z,98370.64
2018-01-16T09:56:39.642Z,98391.71
2018-01-16T09:59:07.190Z,98388.18
2018-01-16T10:01:34.743Z,98396.00
2018-01-16T10:04:02.322Z,98388.98
2018-01-16T10:06:29.933Z,98385.06
2018-01-16T10:08:57.487Z,98390.28
2018-01-16T10:11:25.004Z,98391.56
2018-01-16T10:13:52.613Z,98404.31
2018-01-16T10:16:20.161Z,98410.40
2018-01-16T10:18:47.762Z,98417.31
2018-01-16T10:21:15.531Z,98421.98
2018-01-16T10:23:43.934Z,98417.81
2018-01-16T10:26:11.788Z,98420.32
2018-01-16T10:28:39.401Z,98423.34
2018-01-16T10:31:06.994Z,98422.25
2018-01-16T10:33:34.528Z,98418.86
2018-01-16T10:36:02.133Z,98414.67
2018-01-16T10:38:29.845Z,98424.19
2018-01-16T10:40:57.559Z,98426.81
2018-01-16T10:43:25.336Z,98432.75
2018-01-16T10:45:52.881Z,98440.73
2018-01-16T10:48:20.453Z,98439.84
2018-01-16T10:50:47.955Z,98442.00
2018-01-16T10:53:15.514Z,98444.31
2018-01-16T10:55:43.078Z,98442.92
2018-01-16T10:58:10.633Z,98439.91
2018-01-16T11:00:38.181Z,98443.15
2018-01-16T11:03:05.718Z,98442.61
2018-01-16T11:05:33.236Z,98442.68
2018-01-16T11:08:00.828Z,98442.91
2018-01-16T11:10:28.378Z,98440.91
2018-01-16T11:12:55.913Z,98437.95
2018-01-16T11:15:23.544Z,98435.80
2018-01-16T11:17:51.208Z,98437.00
2018-01-16T11:20:18.717Z,98440.14
2018-01-16T11:22:46.603Z,98436.77
2018-01-16T11:25:14.275Z,98432.44
2018-01-16T11:27:41.819Z,98434.65
2018-01-16T11:30:09.365Z,98435.24
2018-01-16T11:32:36.935Z,98422.46
2018-01-16T11:35:04.781Z,98463.59
2018-01-16T11:37:32.321Z,98485.08
2018-01-16T11:39:59.857Z,98500.92
2018-01-16T11:42:27.434Z,98477.03
2018-01-16T11:44:55.306Z,98461.37
2018-01-16T11:47:22.841Z,98472.58
2018-01-16T11:49:50.385Z,98468.63
2018-01-16T11:52:17.993Z,98456.93
2018-01-16T11:54:45.677Z,98461.96
2018-01-16T11:57:13.215Z,98455.89
2018-01-16T11:59:40.752Z,98467.20
2018-01-16T12:02:08.350Z,98463.30
2018-01-16T12:04:36.170Z,98460.73
2018-01-16T12:07:03.742Z,98462.58
2018-01-16T12:09:31.307Z,98463.06
2018-01-16T12:11:58.877Z,98462.89
2018-01-16T12:14:26.611Z,98458.61
2018-01-16T12:16:54.173Z,98458.35
2018-01-16T12:19:21.709Z,98452.14
2018-01-16T12:21:49.305Z,98457.55
2018-01-16T12:24:16.853Z,98452.67
2018-01-16T12:26:44.408Z,98454.00
2018-01-16T12:29:11.997Z,98464.14
2018-01-16T12:31:39.529Z,98474.71
2018-01-16T12:34:07.066Z,98492.17
2018-01-16T12:36:34.715Z,98498.94
2018-01-16T12:39:02.238Z,98500.36
2018-01-16T12:41:29.742Z,98491.86
2018-01-16T12:43:57.272Z,98491.09
2018-01-16T12:46:24.804Z,98483.98
2018-01-16T12:48:52.586Z,98490.22
2018-01-16T12:51:20.091Z,98499.94
2018-01-16T12:53:47.714Z,98494.56
2018-01-16T12:56:15.813Z,98488.05
2018-01-16T12:58:43.370Z,98495.67
2018-01-16T13:01:10.931Z,98480.59
2018-01-16T13:03:38.504Z,98489.06
2018-01-16T13:06:06.066Z,98484.47
2018-01-16T13:08:33.580Z,98477.92
2018-01-16T13:11:01.117Z,98482.59
2018-01-16T13:13:28.698Z,98475.91
2018-01-16T13:15:56.288Z,98475.22
2018-01-16T13:18:23.795Z,98482.61
2018-01-16T13:20:51.304Z,98473.62
2018-01-16T13:23:18.890Z,98489.12
2018-01-16T13:25:46.460Z,98505.53
2018-01-16T13:28:14.020Z,98495.77
2018-01-16T13:30:41.559Z,98487.97
2018-01-16T13:33:09.117Z,98496.86
2018-01-16T13:35:37.902Z,98500.75
2018-01-16T13:38:05.411Z,98497.41
2018-01-16T13:40:32.925Z,98531.39
2018-01-16T13:43:00.509Z,98526.54
2018-01-16T13:45:28.059Z,98537.52
2018-01-16T13:47:56.018Z,98541.99
2018-01-16T13:50:23.568Z,98543.63
2018-01-16T13:52:51.112Z,98544.08
2018-01-16T13:55:18.675Z,98533.47
2018-01-16T13:57:46.206Z,98533.98
2018-01-16T14:00:13.720Z,98530.13
2018-01-16T14:02:41.369Z,98522.72
2018-01-16T14:05:08.919Z,98530.72
2018-01-16T14:07:36.615Z,98528.41
2018-01-16T14:10:04.247Z,98525.54
2018-01-16T14:12:31.915Z,98538.84
2018-01-16T14:14:59.813Z,98538.06
2018-01-16T14:17:27.577Z,98536.66
2018-01-16T14:19:55.090Z,98537.66
2018-01-16T14:22:22.618Z,98535.02
2018-01-16T14:24:50.212Z,98543.83
2018-01-16T14:27:17.738Z,98538.69
2018-01-16T14:29:45.256Z,98538.15
2018-01-16T14:32:12.822Z,98540.73
2018-01-16T14:34:40.364Z,98532.42
2018-01-16T14:37:07.895Z,98529.94
2018-01-16T14:39:35.398Z,98536.38
2018-01-16T14:42:02.951Z,98535.06
2018-01-16T14:44:30.508Z,98538.00
2018-01-16T14:46:58.014Z,98547.44
2018-01-16T14:49:25.605Z,98549.08
2018-01-16T14:51:53.165Z,98544.91
2018-01-16T14:54:20.718Z,98543.68
2018-01-16T14:56:48.287Z,98550.08
2018-01-16T14:59:16.241Z,98547.16
2018-01-16T15:01:43.785Z,98546.22
2018-01-16T15:04:11.334Z,98546.56
2018-01-16T15:06:38.932Z,98542.72
2018-01-16T15:09:06.912Z,98552.62
2018-01-16T15:11:34.414Z,98561.08
2018-01-16T15:14:01.950Z,98566.02
2018-01-16T15:16:29.514Z,98559.32
2018-01-16T15:18:57.107Z,98571.26
2018-01-16T15:21:24.833Z,98570.20
2018-01-16T15:23:52.558Z,98579.05
2018-01-16T15:26:20.076Z,98582.14
2018-01-16T15:28:47.636Z,98579.81
2018-01-16T15:31:15.278Z,98589.20
2018-01-16T15:33:42.852Z,98582.69
2018-01-16T15:36:10.443Z,98584.08
2018-01-16T15:38:38.034Z,98585.55
2018-01-16T15:41:05.544Z,98583.95
2018-01-16T15:43:33.077Z,98588.97
2018-01-16T15:46:00.632Z,98588.59
2018-01-16T15:48:28.160Z,98597.01
2018-01-16T15:50:55.700Z,98603.23
2018-01-16T15:53:23.203Z,98602.34
2018-01-16T15:55:50.779Z,98596.20
2018-01-16T15:58:18.472Z,98600.58
2018-01-16T16:00:46.070Z,98592.13
2018-01-16T16:03:13.610Z,98596.00
2018-01-16T16:05:41.133Z,98603.70
2018-01-16T16:08:08.702Z,98602.42
2018-01-16T16:10:36.273Z,98602.39
2018-01-16T16:13:03.919Z,98596.78
2018-01-16T16:15:31.446Z,98600.27
2018-01-16T16:17:58.942Z,98598.97
2018-01-16T16:20:26.467Z,98606.73
2018-01-16T16:22:54.013Z,98602.02
2018-01-16T16:25:21.571Z,98600.12
2018-01-16T16:27:49.096Z,98607.47
2018-01-16T16:30:16.619Z,98615.05
2018-01-16T16:32:44.123Z,98607.02
2018-01-16T16:35:11.824Z,98610.27
2018-01-16T16:37:39.441Z,98609.70
2018-01-16T16:40:06.951Z,98607.92
2018-01-16T16:42:34.475Z,98606.34
2018-01-16T16:45:01.967Z,98602.16
2018-01-16T16:47:29.545Z,98597.69
2018-01-16T16:49:57.203Z,98597.42
2018-01-16T16:52:24.741Z,98597.64
2018-01-16T16:54:52.299Z,98611.50
2018-01-16T16:57:19.878Z,98603.25
2018-01-16T16:59:47.384Z,98604.69
2018-01-16T17:02:14.914Z,98609.95
2018-01-16T17:04:42.457Z,98602.78
2018-01-16T17:07:10.014Z,98600.45
2018-01-16T17:09:37.926Z,98591.47
2018-01-16T17:12:05.473Z,98607.89
2018-01-16T17:14:33.013Z,98601.61
2018-01-16T17:17:00.548Z,98593.85
2018-01-16T17:19:28.162Z,98593.52
2018-01-16T17:21:55.713Z,98589.39
2018-01-16T17:24:23.268Z,98587.91
2018-01-16T17:26:51.144Z,98582.73
2018-01-16T17:29:18.710Z,98578.18
2018-01-16T17:31:46.249Z,98583.06
2018-01-16T17:34:14.242Z,98580.50
2018-01-16T17:36:41.755Z,98578.92
2018-01-16T17:39:09.260Z,98576.86
2018-01-16T17:41:36.829Z,98573.69
2018-01-16T17:44:04.365Z,98573.60
2018-01-16T17:46:31.899Z,98569.31
2018-01-16T17:48:59.475Z,98573.02
2018-01-16T17:51:27.011Z,98569.33
2018-01-16T17:53:54.536Z,98568.48
2018-01-16T17:56:22.140Z,98559.89
2018-01-16T17:58:49.655Z,98561.83
2018-01-16T18:01:17.193Z,98563.14
2018-01-16T18:03:45.121Z,98561.55
2018-01-16T18:06:12.897Z,98562.38
2018-01-16T18:08:40.407Z,98568.79
2018-01-16T18:11:08.377Z,98575.78
2018-01-16T18:13:36.131Z,98571.44
2018-01-16T18:16:03.636Z,98567.42
2018-01-16T18:18:31.269Z,98567.19
2018-01-16T18:20:58.800Z,98571.81
2018-01-16T18:23:26.395Z,98566.56
2018-01-16T18:25:54.093Z,98569.19
2018-01-16T18:28:21.631Z,98562.82
2018-01-16T18:30:49.169Z,98564.78
2018-01-16T18:33:16.719Z,98561.88
2018-01-16T18:35:44.277Z,98567.88
2018-01-16T18:38:12.083Z,98564.88
2018-01-16T18:40:39.630Z,98577.81
2018-01-16T18:43:07.183Z,98587.48
2018-01-16T18:45:34.786Z,98610.77
2018-01-16T18:48:02.325Z,98599.80
2018-01-16T18:50:29.869Z,98602.70
2018-01-16T18:52:57.446Z,98596.77
2018-01-16T18:55:24.981Z,98599.06
2018-01-16T18:57:52.496Z,98595.09
2018-01-16T19:00:20.530Z,98590.52
2018-01-16T19:02:48.047Z,98576.59
2018-01-16T19:05:15.635Z,98578.72
2018-01-16T19:07:43.243Z,98587.27
2018-01-16T19:10:10.795Z,98581.36
2018-01-16T19:12:38.398Z,98575.98
2018-01-16T19:15:05.958Z,98581.98
2018-01-16T19:17:33.484Z,98578.15
2018-01-16T19:20:01.097Z,98577.41
2018-01-16T19:22:28.661Z,98568.87
2018-01-16T19:24:56.233Z,98577.22
2018-01-16T19:27:23.785Z,98579.55
2018-01-16T19:29:51.279Z,98573.06
2018-01-16T19:32:18.852Z,98569.80
2018-01-16T19:34:46.436Z,98573.06
2018-01-16T19:37:13.995Z,98562.70
2018-01-16T19:39:41.508Z,98569.00
2018-01-16T19:42:09.059Z,98567.55
2018-01-16T19:44:36.721Z,98563.00
2018-01-16T19:47:04.226Z,98562.08
2018-01-16T19:49:31.790Z,98562.29
2018-01-16T19:51:59.394Z,98562.77
2018-01-16T19:54:26.990Z,98553.53
2018-01-16T19:56:54.531Z,98557.47
2018-01-16T19:59:22.072Z,98559.09
2018-01-16T20:01:49.644Z,98552.09
2018-01-16T20:04:17.176Z,98552.00
2018-01-16T20:06:44.767Z,98549.99
2018-01-16T20:09:13.232Z,98550.00
2018-01-16T20:11:40.749Z,98560.86
2018-01-16T20:14:08.323Z,98563.99
2018-01-16T20:16:35.906Z,98568.69
2018-01-16T20:19:03.458Z,98568.23
2018-01-16T20:21:31.062Z,98560.53
2018-01-16T20:23:58.625Z,98559.10
2018-01-16T20:26:26.131Z,98554.80
2018-01-16T20:28:53.683Z,98558.50
2018-01-16T20:31:21.453Z,98555.25
2018-01-16T20:33:49.054Z,98552.02
2018-01-16T20:36:16.596Z,98551.88
2018-01-16T20:38:44.109Z,98551.04
2018-01-16T20:41:11.710Z,98549.13
2018-01-16T20:43:39.223Z,98561.14
2018-01-16T20:46:06.766Z,98557.27
2018-01-16T20:48:34.304Z,98561.76
2018-01-16T20:51:01.879Z,98554.84
2018-01-16T20:53:29.440Z,98553.91
2018-01-16T20:55:56.943Z,98550.45
2018-01-16T20:58:24.536Z,98548.00
2018-01-16T21:00:52.086Z,98541.89
2018-01-16T21:03:19.608Z,98542.25
2018-01-16T21:05:47.205Z,98531.88
2018-01-16T21:08:14.711Z,98530.45
2018-01-16T21:10:42.280Z,98523.42
2018-01-16T21:13:09.874Z,98526.96
2018-01-16T21:15:37.418Z,98518.73
2018-01-16T21:18:04.956Z,98512.59
2018-01-16T21:20:32.713Z,98520.05
2018-01-16T21:23:00.270Z,98521.59
2018-01-16T21:25:27.806Z,98517.89
2018-01-16T21:27:55.534Z,98519.12
2018-01-16T21:30:23.069Z,98515.73
2018-01-16T21:32:50.639Z,98521.13
2018-01-16T21:35:18.246Z,98529.81
2018-01-16T21:37:45.869Z,98524.41
2018-01-16T21:40:13.388Z,98520.96
2018-01-16T21:42:40.899Z,98518.34
2018-01-16T21:45:08.436Z,98514.61
2018-01-16T21:47:35.968Z,98530.54
2018-01-16T21:50:03.553Z,98526.95
2018-01-16T21:52:31.075Z,98519.03
2018-01-16T21:54:58.944Z,98521.80
2018-01-16T21:57:26.485Z,98522.73
2018-01-16T21:59:54.045Z,98507.98
2018-01-16T22:02:21.641Z,98511.58
2018-01-16T22:04:49.142Z,98511.92
2018-01-16T22:07:16.677Z,98512.11
2018-01-16T22:09:44.293Z,98516.03
2018-01-16T22:12:12.004Z,98516.89
2018-01-16T22:14:39.523Z,98514.97
2018-01-16T22:17:07.086Z,98520.84
2018-01-16T22:19:34.769Z,98522.80
2018-01-16T22:22:02.350Z,98516.63
2018-01-16T22:24:29.890Z,98518.94
2018-01-16T22:26:57.460Z,98511.58
2018-01-16T22:29:24.976Z,98506.45
2018-01-16T22:31:52.487Z,98507.28
2018-01-16T22:34:20.015Z,98500.43
2018-01-16T22:36:47.678Z,98507.25
2018-01-16T22:39:15.334Z,98504.41
2018-01-16T22:41:42.878Z,98505.28
2018-01-16T22:44:10.477Z,98494.13
2018-01-16T22:46:38.027Z,98493.28
2018-01-16T22:49:05.644Z,98496.95
2018-01-16T22:51:33.736Z,98500.80
2018-01-16T22:54:01.239Z,98501.45
2018-01-16T22:56:28.772Z,98501.14
2018-01-16T22:58:56.350Z,98501.69
2018-01-16T23:01:23.913Z,98496.22
2018-01-16T23:03:51.488Z,98495.13
2018-01-16T23:06:19.098Z,98488.47
2018-01-16T23:08:46.647Z,98488.12
2018-01-16T23:11:14.155Z,98474.17
2018-01-16T23:13:41.725Z,98462.73
2018-01-16T23:16:09.365Z,98469.91
2018-01-16T23:18:37.095Z,98478.15
2018-01-16T23:21:04.818Z,98482.15
2018-01-16T23:23:32.595Z,98476.77
2018-01-16T23:26:00.116Z,98479.33
2018-01-16T23:28:27.741Z,98466.33
2018-01-16T23:30:55.246Z,98469.03
2018-01-16T23:33:22.990Z,98469.64
2018-01-16T23:35:50.506Z,98469.95
2018-01-16T23:38:18.377Z,98469.70
2018-01-16T23:40:45.893Z,98470.69
2018-01-16T23:43:13.451Z,98465.45
2018-01-16T23:45:40.985Z,98456.13
2018-01-16T23:48:08.554Z,98458.03
2018-01-16T23:50:36.131Z,98457.86
2018-01-16T23:53:03.666Z,98456.38
2018-01-16T23:55:31.245Z,98457.66
2018-01-16T23:57:58.792Z,98441.06
